Latest Weather Observations for Christmas Creek

IDW60801

Issued at 2:32 pm WST Tuesday 28 April 2015 (issued every 30 minutes, with the page automatically refreshed every 10 minutes)

About weather observations | Map of weather stations | Latest weather observations for WA | Other Formats
Station Details ID: 505049 Name: CHRISTMAS CREEK Lat: -22.36 Lon: 119.65 Height: 437.21 m
Data from the previous 72 hours. | See also: Recent months for locations in Western Australia
Date/Time
WST
Temp
°C
App
Temp
°C
Dew
Point
Rel
Hum
%
Delta-T
°C
Wind Press
QNH
hPa
Press
MSL
hPa
Rain
since 9 am
mm
Dir
 
Spd
km/h
Gust
km/h
Spd
kts
Gust
kts
28/02:30pm 27.7 22.5 2.7 20 12.6 E 19 30 10 16 1016.8 1014.3 0.0
28/02:00pm 27.3 22.1 3.3 21 12.2 E 20 28 11 15 1017.1 1014.7 0.0
28/01:30pm 27.1 22.0 3.2 21 12.1 E 19 30 10 16 1017.5 1015.1 0.0
28/01:00pm 27.2 21.9 3.1 21 12.2 E 20 37 11 20 1017.9 1015.5 0.0
28/12:30pm 26.5 21.2 3.0 22 11.8 E 20 32 11 17 1018.7 1016.2 0.0
28/12:00pm 26.2 21.0 3.4 23 11.5 E 20 33 11 18 1019.3 1016.9 0.0
28/11:30am 25.6 20.0 3.5 24 11.1 E 22 30 12 16 1019.8 1017.4 0.0
28/11:00am 25.0 18.2 3.0 24 10.9 E 28 41 15 22 1020.1 1017.7 0.0
28/10:30am 24.5 18.9 3.6 25 10.5 ENE 22 37 12 20 1020.6 1018.1 0.0
28/10:00am 23.7 18.2 4.2 28 9.8 E 22 32 12 17 1020.8 1018.3 0.0
28/09:30am 21.5 17.2 5.1 34 8.3 ESE 17 24 9 13 1021.2 1018.8 0.0
28/09:00am 19.8 15.6 5.7 39 7.1 ESE 17 22 9 12 1021.2 1018.8 0.0
28/08:30am 18.6 14.8 5.9 43 6.4 SE 15 22 8 12 1021.6 1019.2 0.0
28/08:00am 17.2 13.9 6.4 49 5.4 ESE 13 19 7 10 1021.4 1019.0 0.0
28/07:30am 15.9 13.2 7.2 56 4.4 SE 11 15 6 8 1021.2 1018.8 0.0
28/07:00am 14.3 12.5 7.9 65 3.2 SSE 7 9 4 5 1021.3 1018.9 0.0
28/06:30am 13.4 11.6 7.9 69 2.8 SSE 7 7 4 4 1020.8 1018.3 0.0
28/06:00am 13.3 11.5 8.0 70 2.7 S 7 7 4 4 1020.6 1018.1 0.0
28/05:30am 13.8 12.2 8.0 68 2.9 SSE 6 7 3 4 1020.2 1017.8 0.0
28/05:00am 14.4 12.7 7.7 64 3.4 SSE 6 9 3 5 1020.0 1017.6 0.0
28/04:30am 15.9 13.0 6.6 54 4.7 SE 11 15 6 8 1019.9 1017.5 0.0
28/04:00am 16.1 14.1 6.9 54 4.6 SE 7 9 4 5 1019.9 1017.5 0.0
28/03:30am 16.0 14.0 7.2 56 4.5 SE 7 9 4 5 1019.7 1017.3 0.0
28/03:00am 16.5 14.5 7.0 53 4.8 SE 7 11 4 6 1020.0 1017.6 0.0
28/02:30am 17.4 14.5 6.6 49 5.5 SE 11 17 6 9 1020.2 1017.8 0.0
28/02:00am 18.3 14.2 6.1 44 6.1 ESE 17 24 9 13 1020.4 1018.0 0.0
28/01:30am 18.6 14.5 6.1 44 6.3 SE 17 24 9 13 1020.7 1018.2 0.0
28/01:00am 18.7 15.0 6.3 44 6.3 SE 15 20 8 11 1020.8 1018.3 0.0
28/12:30am 19.3 15.5 6.0 41 6.7 SE 15 22 8 12 1020.9 1018.4 0.0
28/12:00am 18.7 15.8 6.6 45 6.2 SE 11 17 6 9 1021.1 1018.7 0.0
 
Date/Time
WST
Temp
°C
App
Temp
°C
Dew
Point
Rel
Hum
%
Delta-T
°C
Wind Press
QNH
hPa
Press
MSL
hPa
Rain
since 9 am
mm
Dir
 
Spd
km/h
Gust
km/h
Spd
kts
Gust
kts
27/11:30pm 18.8 16.8 6.9 46 6.1 SE 7 13 4 7 1021.4 1019.0 0.0
27/11:00pm 19.9 17.7 6.0 40 7.0 ESE 7 11 4 6 1021.4 1019.0 0.0
27/10:30pm 20.5 17.8 5.4 37 7.6 ESE 9 11 5 6 1021.6 1019.2 0.0
27/10:00pm 20.7 18.0 5.8 37 7.6 SE 9 13 5 7 1021.4 1019.0 0.0
27/09:30pm 21.8 18.6 5.2 34 8.4 SE 11 15 6 8 1021.4 1019.0 0.0
27/09:00pm 22.5 19.3 5.0 32 8.8 ESE 11 17 6 9 1021.2 1018.8 0.0
27/08:30pm 23.1 19.5 4.8 30 9.3 ESE 13 19 7 10 1021.1 1018.7 0.0
27/08:00pm 22.7 20.4 5.8 33 8.7 ESE 7 13 4 7 1021.0 1018.5 0.0
27/07:30pm 23.6 21.2 5.4 30 9.4 ESE 7 9 4 5 1020.7 1018.2 0.0
27/07:00pm 24.2 21.1 5.4 29 9.7 SE 11 15 6 8 1020.1 1017.7 0.0
27/06:30pm 25.0 21.3 4.7 27 10.4 SE 13 19 7 10 1019.9 1017.5 0.0
27/06:00pm 26.1 21.0 3.1 22 11.5 SE 19 24 10 13 1019.6 1017.2 0.0
27/05:30pm 26.8 21.4 2.7 21 12.1 SE 20 30 11 16 1019.1 1016.7 0.0
27/05:00pm 27.6 22.4 2.7 20 12.5 ESE 19 30 10 16 1018.8 1016.3 0.0
27/04:30pm 27.9 21.8 2.8 20 12.7 SE 24 33 13 18 1018.7 1016.2 0.0
27/04:00pm 28.4 23.2 2.6 19 13.0 ESE 19 32 10 17 1018.6 1016.1 0.0
27/03:30pm 28.2 22.9 2.9 19 12.8 ESE 20 28 11 15 1018.7 1016.2 0.0
27/03:00pm 28.1 22.0 2.5 19 12.8 ESE 24 33 13 18 1018.7 1016.2 0.0
27/02:30pm 28.3 22.9 2.6 19 13.0 SE 20 30 11 16 1018.6 1016.1 0.0
27/02:00pm 27.9 22.7 2.6 19 12.7 SE 19 30 10 16 1018.8 1016.3 0.0
27/01:30pm 27.3 22.1 2.4 20 12.4 ESE 19 30 10 16 1019.0 1016.6 0.0
27/01:00pm 27.1 22.3 2.4 20 12.3 E 17 26 9 14 1019.3 1016.9 0.0
27/12:30pm 26.8 21.9 1.8 19 12.3 E 17 28 9 15 1019.7 1017.3 0.0
27/12:00pm 26.5 21.2 1.7 20 12.1 E 19 26 10 14 1020.3 1017.9 0.0
27/11:30am 25.9 20.8 2.9 22 11.5 ESE 19 30 10 16 1020.8 1018.3 0.0
27/11:00am 25.2 20.4 2.8 23 11.1 ESE 17 26 9 14 1021.4 1019.0 0.0
27/10:30am 24.3 19.6 2.9 24 10.6 ESE 17 24 9 13 1021.7 1019.3 0.0
27/10:00am 23.8 18.6 3.4 26 10.1 ESE 20 32 11 17 1022.1 1019.7 0.0
27/09:30am 22.5 17.4 4.2 30 9.1 ESE 20 26 11 14 1022.1 1019.7 0.0
27/09:00am 20.5 16.3 5.7 38 7.5 ESE 17 24 9 13 1022.2 1019.8 0.0
27/08:30am 19.2 15.0 5.7 41 6.8 ESE 17 24 9 13 1022.2 1019.8 0.0
27/08:00am 17.9 15.1 6.9 48 5.6 SE 11 17 6 9 1022.1 1019.7 0.0
27/07:30am 16.3 14.4 7.4 55 4.5 SE 7 13 4 7 1022.0 1019.6 0.0
27/07:00am 14.7 13.5 8.0 64 3.4 S 4 9 2 5 1021.7 1019.3 0.0
27/06:30am 13.4 12.3 8.6 73 2.5 SE 4 6 2 3 1021.2 1018.8 0.0
27/06:00am 14.0 12.4 8.0 67 3.0 SSE 6 9 3 5 1021.2 1018.8 0.0
27/05:30am 14.9 11.8 7.4 61 3.8 SSE 13 17 7 9 1021.1 1018.7 0.0
27/05:00am 14.9 13.2 7.7 62 3.7 S 6 7 3 4 1020.7 1018.2 0.0
27/04:30am 16.3 14.2 6.8 53 4.8 SE 7 11 4 6 1020.1 1017.7 0.0
27/04:00am 16.6 14.5 6.6 51 5.0 ESE 7 13 4 7 1019.9 1017.5 0.0
27/03:30am 16.7 14.9 7.2 53 4.8 ESE 6 9 3 5 1020.0 1017.6 0.0
27/03:00am 17.0 14.3 7.3 53 4.9 SE 11 15 6 8 1019.9 1017.5 0.0
27/02:30am 17.2 14.1 7.3 52 5.1 SE 13 19 7 10 1019.7 1017.3 0.0
27/02:00am 17.3 14.3 7.5 52 5.0 SE 13 17 7 9 1019.9 1017.5 0.0
27/01:30am 16.7 13.6 9.0 60 4.1 SSE 15 19 8 10 1020.1 1017.7 0.0
27/01:00am 17.1 15.7 9.0 59 4.3 SSE 6 7 3 4 1020.3 1017.9 0.0
27/12:30am 17.8 16.4 8.8 55 4.8 ESE 6 9 3 5 1020.4 1018.0 0.0
27/12:00am 18.5 16.8 7.4 48 5.7 ESE 6 7 3 4 1020.7 1018.2 0.0
 
Date/Time
WST
Temp
°C
App
Temp
°C
Dew
Point
Rel
Hum
%
Delta-T
°C
Wind Press
QNH
hPa
Press
MSL
hPa
Rain
since 9 am
mm
Dir
 
Spd
km/h
Gust
km/h
Spd
kts
Gust
kts
26/11:30pm 19.0 17.1 6.7 44 6.3 E 6 7 3 4 1020.7 1018.2 0.0
26/11:00pm 20.1 17.9 6.2 40 7.1 ESE 7 11 4 6 1020.9 1018.4 0.0
26/10:30pm 20.3 18.1 6.4 40 7.1 E 7 11 4 6 1021.1 1018.7 0.0
26/10:00pm 19.3 17.6 8.4 49 5.8 E 7 9 4 5 1021.2 1018.8 0.0
26/09:30pm 19.6 18.2 8.7 49 5.8 E 6 7 3 4 1021.4 1019.0 0.0
26/09:00pm 20.3 18.7 8.6 47 6.2 ENE 7 9 4 5 1021.5 1019.1 0.0
26/08:30pm 21.5 19.3 6.3 37 7.8 E 7 9 4 5 1021.4 1019.0 0.0
26/08:00pm 21.5 19.1 6.8 38 7.6 ENE 9 11 5 6 1021.1 1018.7 0.0
26/07:30pm 23.3 20.5 5.0 30 9.3 E 9 11 5 6 1020.7 1018.2 0.0
26/07:00pm 24.0 21.1 4.9 29 9.7 E 9 13 5 7 1020.3 1017.9 0.0
26/06:30pm 24.0 21.2 5.1 29 9.7 E 9 11 5 6 1019.7 1017.3 0.0
26/06:00pm 25.4 22.4 4.1 25 10.8 E 9 17 5 9 1019.4 1017.0 0.0
26/05:30pm 26.1 22.4 4.2 24 11.2 E 13 22 7 12 1019.1 1016.7 0.0
26/05:00pm 26.8 22.1 3.2 22 11.9 E 17 26 9 14 1018.7 1016.2 0.0
26/04:30pm 27.3 22.1 2.5 20 12.4 E 19 28 10 15 1018.4 1015.9 0.0
26/04:00pm 27.5 22.4 2.8 20 12.4 E 19 28 10 15 1018.2 1015.7 0.0
26/03:30pm 27.6 22.9 3.1 20 12.4 ESE 17 30 9 16 1017.9 1015.5 0.0
26/03:00pm 27.2 22.5 3.3 21 12.1 SE 17 30 9 16 1017.9 1015.5 0.0
26/02:30pm 27.3 23.0 3.5 21 12.1 ESE 15 26 8 14 1018.1 1015.6 0.0
26/02:00pm 26.7 22.0 3.4 22 11.8 ESE 17 28 9 15 1018.1 1015.6 0.0
26/01:30pm 26.6 21.5 2.9 21 11.9 ESE 19 32 10 17 1018.2 1015.7 0.0
26/01:00pm 26.2 21.1 3.1 22 11.6 ESE 19 28 10 15 1018.7 1016.2 0.0
26/12:30pm 25.6 20.3 3.1 23 11.2 SE 20 32 11 17 1019.1 1016.7 0.0
26/12:00pm 25.2 20.1 4.1 25 10.7 ESE 20 32 11 17 1019.6 1017.2 0.0
26/11:30am 24.4 19.2 3.5 25 10.4 ESE 20 30 11 16 1020.2 1017.8 0.0
26/11:00am 22.9 17.3 3.5 28 9.6 ESE 22 28 12 15 1020.7 1018.2 0.0
26/10:30am 22.3 17.4 4.2 30 9.0 SE 19 28 10 15 1021.2 1018.8 0.0
26/10:00am 21.0 16.5 4.4 33 8.2 ESE 17 22 9 12 1021.6 1019.2 0.0
26/09:30am 20.4 15.3 4.1 34 8.0 ESE 20 32 11 17 1021.6 1019.2 0.0
26/09:00am 20.1 14.5 3.5 33 8.0 ESE 22 32 12 17 1021.5 1019.1 0.0
26/08:30am 19.1 14.0 4.1 37 7.3 ESE 20 32 11 17 1021.5 1019.1 0.0
26/08:00am 17.9 13.9 4.8 42 6.4 ESE 15 22 8 12 1021.1 1018.7 0.0
26/07:30am 16.7 12.5 5.5 47 5.5 ESE 17 22 9 12 1021.0 1018.5 0.0
26/07:00am 15.5 12.9 7.6 59 4.0 SE 11 17 6 9 1021.0 1018.5 0.0
26/06:30am 14.4 11.5 8.0 65 3.3 SSE 13 19 7 10 1020.7 1018.2 0.0
26/06:00am 14.6 12.0 7.9 64 3.4 SSE 11 15 6 8 1020.3 1017.9 0.0
26/05:30am 14.8 12.3 8.2 64 3.4 SSE 11 15 6 8 1020.3 1017.9 0.0
26/05:00am 15.0 12.9 8.2 64 3.5 SE 9 13 5 7 1020.0 1017.6 0.0
26/04:30am 15.2 12.7 8.2 63 3.6 SSE 11 15 6 8 1019.9 1017.5 0.0
26/04:00am 15.4 12.6 8.4 63 3.6 SSE 13 15 7 8 1019.6 1017.2 0.0
26/03:30am 15.8 13.3 8.3 61 3.9 SE 11 15 6 8 1019.6 1017.2 0.0
26/03:00am 16.2 13.7 8.0 58 4.2 SE 11 15 6 8 1019.8 1017.4 0.0
26/02:30am 16.5 13.6 8.1 57 4.4 SE 13 19 7 10 1019.8 1017.4 0.0
26/02:00am 16.7 13.9 8.4 58 4.3 SE 13 20 7 11 1019.6 1017.2 0.0
26/01:30am 16.9 14.9 8.7 58 4.3 SE 9 15 5 8 1019.8 1017.4 0.0
26/01:00am 16.6 14.8 9.4 62 3.8 SSE 9 13 5 7 1019.9 1017.5 0.0
26/12:30am 17.3 15.4 8.9 57 4.4 SSE 9 13 5 7 1020.0 1017.6 0.0
26/12:00am 18.7 16.4 7.4 47 5.8 SSE 9 13 5 7 1020.0 1017.6 0.0
 
Date/Time
WST
Temp
°C
App
Temp
°C
Dew
Point
Rel
Hum
%
Delta-T
°C
Wind Press
QNH
hPa
Press
MSL
hPa
Rain
since 9 am
mm
Dir
 
Spd
km/h
Gust
km/h
Spd
kts
Gust
kts
25/11:30pm 19.3 16.9 6.8 44 6.4 SE 9 13 5 7 1020.1 1017.7 0.0
25/11:00pm 20.1 16.8 6.5 41 7.0 ESE 13 19 7 10 1020.2 1017.8 0.0
25/10:30pm 20.2 17.4 7.0 42 6.9 ESE 11 15 6 8 1020.3 1017.9 0.0
25/10:00pm 20.9 17.7 6.8 40 7.3 SE 13 19 7 10 1020.2 1017.8 0.0
25/09:30pm 21.1 18.6 8.0 43 7.0 SE 11 17 6 9 1020.2 1017.8 0.0
25/09:00pm 21.3 19.0 9.0 45 6.7 ESE 11 13 6 7 1020.1 1017.7 0.0
25/08:30pm 21.4 19.4 8.8 44 6.8 SE 9 13 5 7 1020.0 1017.6 0.0
25/08:00pm 22.1 19.6 8.0 40 7.5 ESE 11 17 6 9 1019.7 1017.3 0.0
25/07:30pm 22.0 20.0 8.8 43 7.2 E 9 11 5 6 1019.5 1017.1 0.0
25/07:00pm 22.7 20.6 8.2 39 7.8 E 9 13 5 7 1019.1 1016.7 0.0
25/06:30pm 23.5 21.4 8.1 37 8.3 E 9 13 5 7 1018.6 1016.1 0.0
25/06:00pm 23.9 21.3 7.6 35 8.7 ESE 11 15 6 8 1018.4 1015.9 0.0
25/05:30pm 24.4 20.9 7.1 33 9.2 ESE 15 24 8 13 1018.1 1015.6 0.0
25/05:00pm 24.6 20.7 7.1 32 9.3 ESE 17 26 9 14 1017.8 1015.4 0.0
25/04:30pm 24.8 20.3 7.0 32 9.5 ESE 20 30 11 16 1017.6 1015.2 0.0
25/04:00pm 24.7 20.2 7.1 32 9.4 SE 20 26 11 14 1017.4 1015.0 0.0
25/03:30pm 24.4 20.0 7.2 33 9.2 ESE 20 28 11 15 1017.4 1015.0 0.0
25/03:00pm 23.6 20.4 8.4 37 8.2 SE 15 24 8 13 1017.5 1015.1 0.0

Other Formats:

Comma delimited format used in spreadsheet applications
http://www.bom.gov.au/fwo/IDW60801/IDW60801.99737.axf

JavaScript Object Notation format (JSON) in row-major order
http://www.bom.gov.au/fwo/IDW60801/IDW60801.99737.json